sensor_id;sensor_type;location;lat;lon;timestamp;P1;durP1;ratioP1;P2;durP2;ratioP2
70635;SDS011;58206;47.310;19.502;2023-04-22T00:00:33;0.10;;;0.00;;
70635;SDS011;58206;47.310;19.502;2023-04-22T00:03:19;0.10;;;0.00;;
70635;SDS011;58206;47.310;19.502;2023-04-22T00:06:03;0.30;;;0.30;;
70635;SDS011;58206;47.310;19.502;2023-04-22T00:08:47;0.10;;;0.00;;
70635;SDS011;58206;47.310;19.502;2023-04-22T00:11:32;0.10;;;0.00;;
70635;SDS011;58206;47.310;19.502;2023-04-22T00:14:16;0.10;;;0.00;;
70635;SDS011;58206;47.310;19.502;2023-04-22T00:17:00;0.10;;;0.00;;
70635;SDS011;58206;47.310;19.502;2023-04-22T00:19:45;0.10;;;0.00;;
70635;SDS011;58206;47.310;19.502;2023-04-22T00:22:29;0.10;;;0.00;;
70635;SDS011;58206;47.310;19.502;2023-04-22T00:25:14;0.15;;;0.00;;
70635;SDS011;58206;47.310;19.502;2023-04-22T00:27:59;0.10;;;0.00;;
70635;SDS011;58206;47.310;19.502;2023-04-22T00:30:43;0.00;;;0.00;;
70635;SDS011;58206;47.310;19.502;2023-04-22T00:33:27;0.03;;;0.00;;
70635;SDS011;58206;47.310;19.502;2023-04-22T00:36:12;0.10;;;0.00;;
70635;SDS011;58206;47.310;19.502;2023-04-22T00:38:56;0.10;;;0.00;;
70635;SDS011;58206;47.310;19.502;2023-04-22T00:41:40;0.10;;;0.00;;
70635;SDS011;58206;47.310;19.502;2023-04-22T00:44:25;0.00;;;0.00;;
70635;SDS011;58206;47.310;19.502;2023-04-22T00:47:11;0.10;;;0.00;;
70635;SDS011;58206;47.310;19.502;2023-04-22T00:49:55;0.00;;;0.00;;
70635;SDS011;58206;47.310;19.502;2023-04-22T00:52:40;0.00;;;0.00;;
70635;SDS011;58206;47.310;19.502;2023-04-22T00:55:25;0.00;;;0.00;;
70635;SDS011;58206;47.310;19.502;2023-04-22T00:58:09;0.10;;;0.00;;
70635;SDS011;58206;47.310;19.502;2023-04-22T01:00:54;0.20;;;0.00;;
70635;SDS011;58206;47.310;19.502;2023-04-22T01:03:39;0.00;;;0.00;;
70635;SDS011;58206;47.310;19.502;2023-04-22T01:06:23;0.03;;;0.00;;
70635;SDS011;58206;47.310;19.502;2023-04-22T01:09:09;0.10;;;0.00;;
70635;SDS011;58206;47.310;19.502;2023-04-22T01:11:54;0.10;;;0.00;;
70635;SDS011;58206;47.310;19.502;2023-04-22T01:14:39;0.03;;;0.00;;
70635;SDS011;58206;47.310;19.502;2023-04-22T01:17:23;0.00;;;0.00;;
70635;SDS011;58206;47.310;19.502;2023-04-22T01:20:09;0.00;;;0.00;;
70635;SDS011;58206;47.310;19.502;2023-04-22T01:22:54;0.10;;;0.00;;
70635;SDS011;58206;47.310;19.502;2023-04-22T01:25:41;0.00;;;0.00;;
70635;SDS011;58206;47.310;19.502;2023-04-22T01:28:27;0.10;;;0.00;;
70635;SDS011;58206;47.310;19.502;2023-04-22T01:31:12;0.00;;;0.00;;
70635;SDS011;58206;47.310;19.502;2023-04-22T01:33:57;0.00;;;0.00;;
70635;SDS011;58206;47.310;19.502;2023-04-22T01:36:41;0.00;;;0.00;;
70635;SDS011;58206;47.310;19.502;2023-04-22T01:39:27;0.00;;;0.00;;
70635;SDS011;58206;47.310;19.502;2023-04-22T01:42:12;0.08;;;0.00;;
70635;SDS011;58206;47.310;19.502;2023-04-22T01:44:57;0.03;;;0.00;;
70635;SDS011;58206;47.310;19.502;2023-04-22T01:47:42;0.10;;;0.00;;
70635;SDS011;58206;47.310;19.502;2023-04-22T01:50:26;0.05;;;0.00;;
70635;SDS011;58206;47.310;19.502;2023-04-22T01:53:10;0.00;;;0.00;;
70635;SDS011;58206;47.310;19.502;2023-04-22T01:55:54;0.00;;;0.00;;
70635;SDS011;58206;47.310;19.502;2023-04-22T01:58:39;0.10;;;0.00;;
70635;SDS011;58206;47.310;19.502;2023-04-22T02:01:24;0.00;;;0.00;;
70635;SDS011;58206;47.310;19.502;2023-04-22T02:04:08;0.00;;;0.00;;
70635;SDS011;58206;47.310;19.502;2023-04-22T02:06:53;0.00;;;0.00;;
70635;SDS011;58206;47.310;19.502;2023-04-22T02:09:37;0.00;;;0.00;;
70635;SDS011;58206;47.310;19.502;2023-04-22T02:12:21;0.00;;;0.00;;
70635;SDS011;58206;47.310;19.502;2023-04-22T02:15:06;0.00;;;0.00;;
70635;SDS011;58206;47.310;19.502;2023-04-22T02:17:51;0.00;;;0.00;;
70635;SDS011;58206;47.310;19.502;2023-04-22T02:20:36;0.00;;;0.00;;
70635;SDS011;58206;47.310;19.502;2023-04-22T02:23:20;0.00;;;0.00;;
70635;SDS011;58206;47.310;19.502;2023-04-22T02:26:06;0.00;;;0.00;;
70635;SDS011;58206;47.310;19.502;2023-04-22T02:28:52;0.00;;;0.00;;
70635;SDS011;58206;47.310;19.502;2023-04-22T02:31:36;0.00;;;0.00;;
70635;SDS011;58206;47.310;19.502;2023-04-22T02:34:21;0.00;;;0.00;;
70635;SDS011;58206;47.310;19.502;2023-04-22T02:37:05;0.00;;;0.00;;
70635;SDS011;58206;47.310;19.502;2023-04-22T02:39:50;0.00;;;0.00;;
70635;SDS011;58206;47.310;19.502;2023-04-22T02:42:34;0.00;;;0.00;;
70635;SDS011;58206;47.310;19.502;2023-04-22T02:45:19;0.00;;;0.00;;
70635;SDS011;58206;47.310;19.502;2023-04-22T02:48:03;0.00;;;0.00;;
70635;SDS011;58206;47.310;19.502;2023-04-22T02:50:48;0.00;;;0.00;;
70635;SDS011;58206;47.310;19.502;2023-04-22T02:53:32;0.00;;;0.00;;
70635;SDS011;58206;47.310;19.502;2023-04-22T02:56:17;0.00;;;0.00;;
70635;SDS011;58206;47.310;19.502;2023-04-22T02:59:01;0.00;;;0.00;;
70635;SDS011;58206;47.310;19.502;2023-04-22T03:01:45;0.00;;;0.00;;
70635;SDS011;58206;47.310;19.502;2023-04-22T03:04:40;0.00;;;0.00;;
70635;SDS011;58206;47.310;19.502;2023-04-22T03:07:26;0.00;;;0.00;;
70635;SDS011;58206;47.310;19.502;2023-04-22T03:10:11;0.00;;;0.00;;
70635;SDS011;58206;47.310;19.502;2023-04-22T03:12:56;0.00;;;0.00;;
70635;SDS011;58206;47.310;19.502;2023-04-22T03:15:41;1.65;;;1.38;;
70635;SDS011;58206;47.310;19.502;2023-04-22T03:18:25;0.00;;;0.00;;
70635;SDS011;58206;47.310;19.502;2023-04-22T03:21:10;0.00;;;0.00;;
70635;SDS011;58206;47.310;19.502;2023-04-22T03:23:54;0.00;;;0.00;;
70635;SDS011;58206;47.310;19.502;2023-04-22T03:26:40;0.00;;;0.00;;
70635;SDS011;58206;47.310;19.502;2023-04-22T03:29:24;0.00;;;0.00;;
70635;SDS011;58206;47.310;19.502;2023-04-22T03:32:08;0.05;;;0.00;;
70635;SDS011;58206;47.310;19.502;2023-04-22T03:34:54;0.00;;;0.00;;
70635;SDS011;58206;47.310;19.502;2023-04-22T03:37:38;0.00;;;0.00;;
70635;SDS011;58206;47.310;19.502;2023-04-22T03:40:25;0.10;;;0.00;;
70635;SDS011;58206;47.310;19.502;2023-04-22T03:43:12;0.00;;;0.00;;
70635;SDS011;58206;47.310;19.502;2023-04-22T03:45:58;0.00;;;0.00;;
70635;SDS011;58206;47.310;19.502;2023-04-22T03:48:45;0.00;;;0.00;;
70635;SDS011;58206;47.310;19.502;2023-04-22T03:51:39;0.00;;;0.00;;
70635;SDS011;58206;47.310;19.502;2023-04-22T03:54:29;0.00;;;0.00;;
70635;SDS011;58206;47.310;19.502;2023-04-22T03:57:14;0.00;;;0.00;;
70635;SDS011;58206;47.310;19.502;2023-04-22T03:59:59;0.00;;;0.00;;
70635;SDS011;58206;47.310;19.502;2023-04-22T04:02:44;0.00;;;0.00;;
70635;SDS011;58206;47.310;19.502;2023-04-22T04:05:33;0.00;;;0.00;;
70635;SDS011;58206;47.310;19.502;2023-04-22T04:08:17;0.00;;;0.00;;
70635;SDS011;58206;47.310;19.502;2023-04-22T04:11:01;0.00;;;0.00;;
70635;SDS011;58206;47.310;19.502;2023-04-22T04:13:46;0.00;;;0.00;;
70635;SDS011;58206;47.310;19.502;2023-04-22T04:16:44;0.00;;;0.00;;
70635;SDS011;58206;47.310;19.502;2023-04-22T04:19:35;0.10;;;0.00;;
70635;SDS011;58206;47.310;19.502;2023-04-22T04:22:20;0.13;;;0.00;;
70635;SDS011;58206;47.310;19.502;2023-04-22T04:25:12;0.38;;;0.15;;
70635;SDS011;58206;47.310;19.502;2023-04-22T04:28:02;0.20;;;0.00;;
70635;SDS011;58206;47.310;19.502;2023-04-22T04:30:46;0.30;;;0.00;;
70635;SDS011;58206;47.310;19.502;2023-04-22T04:33:31;0.20;;;0.00;;
70635;SDS011;58206;47.310;19.502;2023-04-22T04:36:15;0.30;;;0.00;;
70635;SDS011;58206;47.310;19.502;2023-04-22T04:39:01;0.30;;;0.00;;
70635;SDS011;58206;47.310;19.502;2023-04-22T04:41:46;0.30;;;0.00;;
70635;SDS011;58206;47.310;19.502;2023-04-22T04:44:33;0.20;;;0.00;;
70635;SDS011;58206;47.310;19.502;2023-04-22T04:47:20;0.28;;;0.00;;
70635;SDS011;58206;47.310;19.502;2023-04-22T04:50:06;0.85;;;0.68;;
70635;SDS011;58206;47.310;19.502;2023-04-22T04:52:51;0.40;;;0.10;;
70635;SDS011;58206;47.310;19.502;2023-04-22T04:55:40;0.30;;;0.00;;
70635;SDS011;58206;47.310;19.502;2023-04-22T04:58:31;0.23;;;0.00;;
70635;SDS011;58206;47.310;19.502;2023-04-22T05:01:27;0.20;;;0.00;;
70635;SDS011;58206;47.310;19.502;2023-04-22T05:04:16;0.30;;;0.00;;
70635;SDS011;58206;47.310;19.502;2023-04-22T05:07:01;0.30;;;0.00;;
70635;SDS011;58206;47.310;19.502;2023-04-22T05:09:47;0.30;;;0.10;;
70635;SDS011;58206;47.310;19.502;2023-04-22T05:12:32;0.20;;;0.00;;
70635;SDS011;58206;47.310;19.502;2023-04-22T05:15:17;0.20;;;0.00;;
70635;SDS011;58206;47.310;19.502;2023-04-22T05:18:01;0.20;;;0.00;;
70635;SDS011;58206;47.310;19.502;2023-04-22T05:20:46;0.20;;;0.00;;
70635;SDS011;58206;47.310;19.502;2023-04-22T05:23:31;0.30;;;0.00;;
70635;SDS011;58206;47.310;19.502;2023-04-22T05:26:17;0.40;;;0.10;;
70635;SDS011;58206;47.310;19.502;2023-04-22T05:29:04;0.10;;;0.00;;
70635;SDS011;58206;47.310;19.502;2023-04-22T05:31:52;0.30;;;0.00;;
70635;SDS011;58206;47.310;19.502;2023-04-22T05:34:36;0.20;;;0.00;;
70635;SDS011;58206;47.310;19.502;2023-04-22T05:37:35;0.30;;;0.00;;
70635;SDS011;58206;47.310;19.502;2023-04-22T05:40:20;0.30;;;0.00;;
70635;SDS011;58206;47.310;19.502;2023-04-22T05:43:04;0.30;;;0.00;;
70635;SDS011;58206;47.310;19.502;2023-04-22T05:45:49;0.28;;;0.00;;
70635;SDS011;58206;47.310;19.502;2023-04-22T05:48:35;0.30;;;0.00;;
70635;SDS011;58206;47.310;19.502;2023-04-22T05:51:24;0.25;;;0.00;;
70635;SDS011;58206;47.310;19.502;2023-04-22T05:54:08;0.30;;;0.07;;
70635;SDS011;58206;47.310;19.502;2023-04-22T05:56:53;0.30;;;0.00;;
70635;SDS011;58206;47.310;19.502;2023-04-22T05:59:37;0.30;;;0.00;;
70635;SDS011;58206;47.310;19.502;2023-04-22T06:02:22;0.20;;;0.00;;
70635;SDS011;58206;47.310;19.502;2023-04-22T06:05:07;0.30;;;0.10;;
70635;SDS011;58206;47.310;19.502;2023-04-22T06:07:51;0.27;;;0.00;;
70635;SDS011;58206;47.310;19.502;2023-04-22T06:10:35;0.20;;;0.00;;
70635;SDS011;58206;47.310;19.502;2023-04-22T06:13:20;0.40;;;0.10;;
70635;SDS011;58206;47.310;19.502;2023-04-22T06:16:04;0.30;;;0.10;;
70635;SDS011;58206;47.310;19.502;2023-04-22T06:18:50;0.40;;;0.10;;
70635;SDS011;58206;47.310;19.502;2023-04-22T06:21:34;0.30;;;0.10;;
70635;SDS011;58206;47.310;19.502;2023-04-22T06:24:21;0.40;;;0.10;;
70635;SDS011;58206;47.310;19.502;2023-04-22T06:27:05;0.30;;;0.10;;
70635;SDS011;58206;47.310;19.502;2023-04-22T06:29:49;0.70;;;0.20;;
70635;SDS011;58206;47.310;19.502;2023-04-22T06:32:34;0.70;;;0.20;;
70635;SDS011;58206;47.310;19.502;2023-04-22T06:35:20;1.10;;;0.30;;
70635;SDS011;58206;47.310;19.502;2023-04-22T06:38:04;1.10;;;0.40;;
70635;SDS011;58206;47.310;19.502;2023-04-22T06:40:57;1.13;;;0.40;;
70635;SDS011;58206;47.310;19.502;2023-04-22T06:43:45;1.20;;;0.40;;
70635;SDS011;58206;47.310;19.502;2023-04-22T06:47:03;1.40;;;0.50;;
70635;SDS011;58206;47.310;19.502;2023-04-22T06:50:13;1.40;;;0.50;;
70635;SDS011;58206;47.310;19.502;2023-04-22T06:53:24;1.38;;;0.50;;
70635;SDS011;58206;47.310;19.502;2023-04-22T06:56:08;1.27;;;0.50;;
70635;SDS011;58206;47.310;19.502;2023-04-22T06:58:53;1.48;;;0.57;;
70635;SDS011;58206;47.310;19.502;2023-04-22T07:01:38;1.52;;;0.60;;
70635;SDS011;58206;47.310;19.502;2023-04-22T07:04:22;1.60;;;0.60;;
70635;SDS011;58206;47.310;19.502;2023-04-22T07:07:07;1.40;;;0.50;;
70635;SDS011;58206;47.310;19.502;2023-04-22T07:09:52;1.67;;;0.68;;
70635;SDS011;58206;47.310;19.502;2023-04-22T07:12:36;1.70;;;0.63;;
70635;SDS011;58206;47.310;19.502;2023-04-22T07:15:21;1.60;;;0.60;;
70635;SDS011;58206;47.310;19.502;2023-04-22T07:18:05;1.80;;;0.70;;
70635;SDS011;58206;47.310;19.502;2023-04-22T07:20:49;1.67;;;0.65;;
70635;SDS011;58206;47.310;19.502;2023-04-22T07:23:34;1.70;;;0.70;;
70635;SDS011;58206;47.310;19.502;2023-04-22T07:26:18;1.63;;;0.68;;
70635;SDS011;58206;47.310;19.502;2023-04-22T07:29:02;2.08;;;0.90;;
70635;SDS011;58206;47.310;19.502;2023-04-22T07:31:46;1.90;;;0.80;;
70635;SDS011;58206;47.310;19.502;2023-04-22T07:34:31;2.10;;;0.90;;
70635;SDS011;58206;47.310;19.502;2023-04-22T07:37:15;1.42;;;0.55;;
70635;SDS011;58206;47.310;19.502;2023-04-22T07:39:59;1.60;;;0.70;;
70635;SDS011;58206;47.310;19.502;2023-04-22T07:42:45;1.75;;;0.70;;
70635;SDS011;58206;47.310;19.502;2023-04-22T07:45:29;2.07;;;0.83;;
70635;SDS011;58206;47.310;19.502;2023-04-22T07:48:14;2.28;;;0.90;;
70635;SDS011;58206;47.310;19.502;2023-04-22T07:50:58;2.20;;;1.00;;
70635;SDS011;58206;47.310;19.502;2023-04-22T07:53:42;2.08;;;0.88;;
70635;SDS011;58206;47.310;19.502;2023-04-22T07:56:27;2.00;;;0.80;;
70635;SDS011;58206;47.310;19.502;2023-04-22T07:59:11;2.40;;;1.00;;
70635;SDS011;58206;47.310;19.502;2023-04-22T08:01:56;2.20;;;0.90;;
70635;SDS011;58206;47.310;19.502;2023-04-22T08:04:40;2.17;;;0.90;;
70635;SDS011;58206;47.310;19.502;2023-04-22T08:07:24;2.20;;;1.00;;
70635;SDS011;58206;47.310;19.502;2023-04-22T08:10:09;2.60;;;1.30;;
70635;SDS011;58206;47.310;19.502;2023-04-22T08:12:53;2.10;;;0.90;;
70635;SDS011;58206;47.310;19.502;2023-04-22T08:15:38;2.72;;;1.38;;
70635;SDS011;58206;47.310;19.502;2023-04-22T08:18:22;2.30;;;1.00;;
70635;SDS011;58206;47.310;19.502;2023-04-22T08:21:07;2.40;;;1.00;;
70635;SDS011;58206;47.310;19.502;2023-04-22T08:23:51;2.47;;;1.00;;
70635;SDS011;58206;47.310;19.502;2023-04-22T08:26:36;2.77;;;1.67;;
70635;SDS011;58206;47.310;19.502;2023-04-22T08:29:23;2.78;;;1.52;;
70635;SDS011;58206;47.310;19.502;2023-04-22T08:32:07;2.22;;;1.00;;
70635;SDS011;58206;47.310;19.502;2023-04-22T08:34:51;2.35;;;1.00;;
70635;SDS011;58206;47.310;19.502;2023-04-22T08:37:35;2.40;;;1.20;;
70635;SDS011;58206;47.310;19.502;2023-04-22T08:40:20;2.70;;;1.50;;
70635;SDS011;58206;47.310;19.502;2023-04-22T08:43:04;2.65;;;1.40;;
70635;SDS011;58206;47.310;19.502;2023-04-22T08:45:48;2.60;;;1.17;;
70635;SDS011;58206;47.310;19.502;2023-04-22T08:48:33;2.40;;;1.25;;
70635;SDS011;58206;47.310;19.502;2023-04-22T08:51:19;2.60;;;1.30;;
70635;SDS011;58206;47.310;19.502;2023-04-22T08:54:03;2.63;;;1.23;;
70635;SDS011;58206;47.310;19.502;2023-04-22T08:56:49;3.75;;;3.15;;
70635;SDS011;58206;47.310;19.502;2023-04-22T08:59:34;2.42;;;1.10;;
70635;SDS011;58206;47.310;19.502;2023-04-22T09:02:19;2.90;;;1.42;;
70635;SDS011;58206;47.310;19.502;2023-04-22T09:05:04;2.70;;;1.30;;
70635;SDS011;58206;47.310;19.502;2023-04-22T09:07:49;2.53;;;1.20;;
70635;SDS011;58206;47.310;19.502;2023-04-22T09:10:37;3.15;;;1.73;;
70635;SDS011;58206;47.310;19.502;2023-04-22T09:13:27;2.28;;;1.00;;
70635;SDS011;58206;47.310;19.502;2023-04-22T09:19:15;2.90;;;1.77;;
70635;SDS011;58206;47.310;19.502;2023-04-22T09:22:00;2.70;;;1.40;;
70635;SDS011;58206;47.310;19.502;2023-04-22T09:24:50;2.33;;;1.25;;
70635;SDS011;58206;47.310;19.502;2023-04-22T09:27:34;2.70;;;1.25;;
70635;SDS011;58206;47.310;19.502;2023-04-22T09:33:07;2.58;;;1.30;;
70635;SDS011;58206;47.310;19.502;2023-04-22T09:35:51;2.30;;;1.17;;
70635;SDS011;58206;47.310;19.502;2023-04-22T09:38:55;3.00;;;1.83;;
70635;SDS011;58206;47.310;19.502;2023-04-22T09:44:22;2.20;;;1.10;;
70635;SDS011;58206;47.310;19.502;2023-04-22T09:47:10;2.63;;;1.20;;
70635;SDS011;58206;47.310;19.502;2023-04-22T09:49:55;2.80;;;1.40;;
70635;SDS011;58206;47.310;19.502;2023-04-22T09:52:39;2.55;;;1.17;;
70635;SDS011;58206;47.310;19.502;2023-04-22T09:55:25;3.08;;;1.08;;
70635;SDS011;58206;47.310;19.502;2023-04-22T09:58:11;1.60;;;0.65;;
70635;SDS011;58206;47.310;19.502;2023-04-22T10:00:56;1.60;;;0.60;;
70635;SDS011;58206;47.310;19.502;2023-04-22T10:09:23;1.70;;;0.70;;
70635;SDS011;58206;47.310;19.502;2023-04-22T10:12:08;2.92;;;1.05;;
70635;SDS011;58206;47.310;19.502;2023-04-22T10:14:52;1.40;;;0.50;;
70635;SDS011;58206;47.310;19.502;2023-04-22T10:17:37;1.40;;;0.50;;
70635;SDS011;58206;47.310;19.502;2023-04-22T10:20:22;1.80;;;0.70;;
70635;SDS011;58206;47.310;19.502;2023-04-22T10:23:11;1.75;;;0.85;;
70635;SDS011;58206;47.310;19.502;2023-04-22T10:25:56;0.90;;;0.30;;
70635;SDS011;58206;47.310;19.502;2023-04-22T10:28:42;1.95;;;0.85;;
70635;SDS011;58206;47.310;19.502;2023-04-22T10:31:27;1.20;;;0.40;;
70635;SDS011;58206;47.310;19.502;2023-04-22T10:34:12;1.40;;;0.60;;
70635;SDS011;58206;47.310;19.502;2023-04-22T10:37:02;1.50;;;0.60;;
70635;SDS011;58206;47.310;19.502;2023-04-22T10:45:04;1.87;;;0.97;;
70635;SDS011;58206;47.310;19.502;2023-04-22T10:47:48;1.02;;;0.40;;
70635;SDS011;58206;47.310;19.502;2023-04-22T10:56:17;0.90;;;0.55;;
70635;SDS011;58206;47.310;19.502;2023-04-22T10:59:13;2.90;;;1.17;;
70635;SDS011;58206;47.310;19.502;2023-04-22T11:02:02;0.90;;;0.30;;
70635;SDS011;58206;47.310;19.502;2023-04-22T11:04:47;0.73;;;0.22;;
70635;SDS011;58206;47.310;19.502;2023-04-22T11:07:31;1.52;;;0.77;;
70635;SDS011;58206;47.310;19.502;2023-04-22T11:10:31;0.60;;;0.15;;
70635;SDS011;58206;47.310;19.502;2023-04-22T11:13:17;0.70;;;0.20;;
70635;SDS011;58206;47.310;19.502;2023-04-22T11:16:02;0.90;;;0.30;;
70635;SDS011;58206;47.310;19.502;2023-04-22T11:18:46;0.80;;;0.20;;
70635;SDS011;58206;47.310;19.502;2023-04-22T11:21:31;1.10;;;0.40;;
70635;SDS011;58206;47.310;19.502;2023-04-22T11:24:17;1.55;;;0.70;;
70635;SDS011;58206;47.310;19.502;2023-04-22T11:27:01;1.70;;;0.77;;
70635;SDS011;58206;47.310;19.502;2023-04-22T11:29:58;1.50;;;0.60;;
70635;SDS011;58206;47.310;19.502;2023-04-22T11:32:43;1.08;;;0.40;;
70635;SDS011;58206;47.310;19.502;2023-04-22T11:35:29;1.05;;;0.40;;
70635;SDS011;58206;47.310;19.502;2023-04-22T11:38:14;1.10;;;0.40;;
70635;SDS011;58206;47.310;19.502;2023-04-22T11:40:58;0.90;;;0.30;;
70635;SDS011;58206;47.310;19.502;2023-04-22T11:43:46;0.80;;;0.20;;
70635;SDS011;58206;47.310;19.502;2023-04-22T11:46:31;0.80;;;0.20;;
70635;SDS011;58206;47.310;19.502;2023-04-22T11:49:21;1.42;;;0.70;;
70635;SDS011;58206;47.310;19.502;2023-04-22T11:52:05;0.75;;;0.20;;
70635;SDS011;58206;47.310;19.502;2023-04-22T11:54:50;0.60;;;0.20;;
70635;SDS011;58206;47.310;19.502;2023-04-22T11:57:35;0.80;;;0.30;;
70635;SDS011;58206;47.310;19.502;2023-04-22T12:00:20;1.23;;;0.55;;
70635;SDS011;58206;47.310;19.502;2023-04-22T12:08:40;0.63;;;0.30;;
70635;SDS011;58206;47.310;19.502;2023-04-22T12:11:26;0.50;;;0.20;;
70635;SDS011;58206;47.310;19.502;2023-04-22T12:14:11;0.50;;;0.20;;
70635;SDS011;58206;47.310;19.502;2023-04-22T12:16:55;0.47;;;0.10;;
70635;SDS011;58206;47.310;19.502;2023-04-22T12:19:39;0.40;;;0.10;;
70635;SDS011;58206;47.310;19.502;2023-04-22T12:22:25;0.60;;;0.20;;
70635;SDS011;58206;47.310;19.502;2023-04-22T12:25:10;0.40;;;0.10;;
70635;SDS011;58206;47.310;19.502;2023-04-22T12:27:54;0.60;;;0.20;;
70635;SDS011;58206;47.310;19.502;2023-04-22T12:30:40;0.43;;;0.13;;
70635;SDS011;58206;47.310;19.502;2023-04-22T12:33:24;0.40;;;0.10;;
70635;SDS011;58206;47.310;19.502;2023-04-22T12:36:09;0.40;;;0.10;;
70635;SDS011;58206;47.310;19.502;2023-04-22T12:38:53;0.30;;;0.10;;
70635;SDS011;58206;47.310;19.502;2023-04-22T12:41:38;0.60;;;0.30;;
70635;SDS011;58206;47.310;19.502;2023-04-22T12:44:22;0.60;;;0.30;;
70635;SDS011;58206;47.310;19.502;2023-04-22T12:47:06;0.45;;;0.20;;
70635;SDS011;58206;47.310;19.502;2023-04-22T12:52:33;0.60;;;0.20;;
70635;SDS011;58206;47.310;19.502;2023-04-22T12:55:20;0.40;;;0.20;;
70635;SDS011;58206;47.310;19.502;2023-04-22T12:58:05;0.82;;;0.50;;
70635;SDS011;58206;47.310;19.502;2023-04-22T13:00:50;0.50;;;0.20;;
70635;SDS011;58206;47.310;19.502;2023-04-22T13:03:35;0.40;;;0.10;;
70635;SDS011;58206;47.310;19.502;2023-04-22T13:06:19;0.77;;;0.32;;
70635;SDS011;58206;47.310;19.502;2023-04-22T13:09:03;0.80;;;0.30;;
70635;SDS011;58206;47.310;19.502;2023-04-22T13:11:49;0.57;;;0.20;;
70635;SDS011;58206;47.310;19.502;2023-04-22T13:30:53;0.57;;;0.17;;
70635;SDS011;58206;47.310;19.502;2023-04-22T13:36:50;1.05;;;0.40;;
70635;SDS011;58206;47.310;19.502;2023-04-22T14:00:14;0.70;;;0.20;;
70635;SDS011;58206;47.310;19.502;2023-04-22T14:03:00;0.70;;;0.40;;
70635;SDS011;58206;47.310;19.502;2023-04-22T14:11:09;0.60;;;0.15;;
70635;SDS011;58206;47.310;19.502;2023-04-22T14:13:56;0.60;;;0.20;;
70635;SDS011;58206;47.310;19.502;2023-04-22T14:16:41;0.40;;;0.10;;
70635;SDS011;58206;47.310;19.502;2023-04-22T14:27:27;0.60;;;0.20;;
70635;SDS011;58206;47.310;19.502;2023-04-22T14:30:12;0.40;;;0.10;;
70635;SDS011;58206;47.310;19.502;2023-04-22T14:32:57;0.47;;;0.10;;
70635;SDS011;58206;47.310;19.502;2023-04-22T14:38:20;0.70;;;0.30;;
70635;SDS011;58206;47.310;19.502;2023-04-22T14:43:59;0.47;;;0.20;;
70635;SDS011;58206;47.310;19.502;2023-04-22T14:49:37;0.95;;;0.47;;
70635;SDS011;58206;47.310;19.502;2023-04-22T14:55:23;0.40;;;0.10;;
70635;SDS011;58206;47.310;19.502;2023-04-22T14:58:10;1.13;;;0.57;;
70635;SDS011;58206;47.310;19.502;2023-04-22T15:06:36;1.08;;;0.63;;
70635;SDS011;58206;47.310;19.502;2023-04-22T15:14:44;0.40;;;0.20;;
70635;SDS011;58206;47.310;19.502;2023-04-22T15:17:30;0.40;;;0.10;;
70635;SDS011;58206;47.310;19.502;2023-04-22T15:20:15;0.40;;;0.10;;
70635;SDS011;58206;47.310;19.502;2023-04-22T15:23:06;0.70;;;0.30;;
70635;SDS011;58206;47.310;19.502;2023-04-22T15:26:09;0.63;;;0.20;;
70635;SDS011;58206;47.310;19.502;2023-04-22T15:28:54;0.55;;;0.20;;
70635;SDS011;58206;47.310;19.502;2023-04-22T15:31:39;1.20;;;0.73;;
70635;SDS011;58206;47.310;19.502;2023-04-22T15:34:23;0.30;;;0.10;;
70635;SDS011;58206;47.310;19.502;2023-04-22T15:37:08;0.97;;;0.40;;
70635;SDS011;58206;47.310;19.502;2023-04-22T15:39:52;0.52;;;0.20;;
70635;SDS011;58206;47.310;19.502;2023-04-22T15:42:37;1.63;;;0.73;;
70635;SDS011;58206;47.310;19.502;2023-04-22T15:45:21;0.50;;;0.20;;
70635;SDS011;58206;47.310;19.502;2023-04-22T15:48:05;0.93;;;0.43;;
70635;SDS011;58206;47.310;19.502;2023-04-22T15:50:50;0.30;;;0.10;;
70635;SDS011;58206;47.310;19.502;2023-04-22T15:53:34;0.30;;;0.10;;
70635;SDS011;58206;47.310;19.502;2023-04-22T15:56:18;0.30;;;0.10;;
70635;SDS011;58206;47.310;19.502;2023-04-22T15:59:03;0.50;;;0.20;;
70635;SDS011;58206;47.310;19.502;2023-04-22T16:01:47;0.52;;;0.20;;
70635;SDS011;58206;47.310;19.502;2023-04-22T16:04:32;0.60;;;0.20;;
70635;SDS011;58206;47.310;19.502;2023-04-22T16:07:16;0.45;;;0.10;;
70635;SDS011;58206;47.310;19.502;2023-04-22T16:10:00;0.40;;;0.10;;
70635;SDS011;58206;47.310;19.502;2023-04-22T16:12:45;0.30;;;0.10;;
70635;SDS011;58206;47.310;19.502;2023-04-22T16:15:29;0.30;;;0.10;;
70635;SDS011;58206;47.310;19.502;2023-04-22T16:18:14;0.30;;;0.10;;
70635;SDS011;58206;47.310;19.502;2023-04-22T16:20:59;1.77;;;0.50;;
70635;SDS011;58206;47.310;19.502;2023-04-22T16:23:44;1.40;;;0.68;;
70635;SDS011;58206;47.310;19.502;2023-04-22T16:26:29;0.40;;;0.10;;
70635;SDS011;58206;47.310;19.502;2023-04-22T16:29:13;0.45;;;0.22;;
70635;SDS011;58206;47.310;19.502;2023-04-22T16:31:58;0.57;;;0.17;;
70635;SDS011;58206;47.310;19.502;2023-04-22T16:34:42;2.15;;;1.55;;
70635;SDS011;58206;47.310;19.502;2023-04-22T16:37:26;1.10;;;1.00;;
70635;SDS011;58206;47.310;19.502;2023-04-22T16:40:11;0.30;;;0.10;;
70635;SDS011;58206;47.310;19.502;2023-04-22T16:42:55;0.30;;;0.10;;
70635;SDS011;58206;47.310;19.502;2023-04-22T16:45:42;0.30;;;0.10;;
70635;SDS011;58206;47.310;19.502;2023-04-22T16:48:27;1.17;;;1.08;;
70635;SDS011;58206;47.310;19.502;2023-04-22T16:51:11;0.65;;;0.32;;
70635;SDS011;58206;47.310;19.502;2023-04-22T16:53:55;0.40;;;0.10;;
70635;SDS011;58206;47.310;19.502;2023-04-22T16:56:40;0.40;;;0.10;;
70635;SDS011;58206;47.310;19.502;2023-04-22T16:59:24;0.47;;;0.17;;
70635;SDS011;58206;47.310;19.502;2023-04-22T17:02:09;0.40;;;0.10;;
70635;SDS011;58206;47.310;19.502;2023-04-22T17:04:53;2.28;;;2.10;;
70635;SDS011;58206;47.310;19.502;2023-04-22T17:07:38;0.30;;;0.10;;
70635;SDS011;58206;47.310;19.502;2023-04-22T17:10:22;1.95;;;0.85;;
70635;SDS011;58206;47.310;19.502;2023-04-22T17:13:06;0.30;;;0.10;;
70635;SDS011;58206;47.310;19.502;2023-04-22T17:15:51;0.60;;;0.30;;
70635;SDS011;58206;47.310;19.502;2023-04-22T17:23:59;0.68;;;0.40;;
70635;SDS011;58206;47.310;19.502;2023-04-22T17:26:47;0.40;;;0.10;;
70635;SDS011;58206;47.310;19.502;2023-04-22T17:29:32;0.35;;;0.13;;
70635;SDS011;58206;47.310;19.502;2023-04-22T17:32:18;0.47;;;0.15;;
70635;SDS011;58206;47.310;19.502;2023-04-22T17:35:03;0.30;;;0.00;;
70635;SDS011;58206;47.310;19.502;2023-04-22T17:37:47;0.40;;;0.10;;
70635;SDS011;58206;47.310;19.502;2023-04-22T17:40:34;0.30;;;0.10;;
70635;SDS011;58206;47.310;19.502;2023-04-22T17:43:18;0.40;;;0.10;;
70635;SDS011;58206;47.310;19.502;2023-04-22T17:46:03;0.30;;;0.10;;
70635;SDS011;58206;47.310;19.502;2023-04-22T17:48:48;0.30;;;0.00;;
70635;SDS011;58206;47.310;19.502;2023-04-22T17:51:35;0.30;;;0.05;;
70635;SDS011;58206;47.310;19.502;2023-04-22T17:54:20;1.00;;;0.40;;
70635;SDS011;58206;47.310;19.502;2023-04-22T17:57:06;0.63;;;0.20;;
70635;SDS011;58206;47.310;19.502;2023-04-22T17:59:56;1.00;;;0.55;;
70635;SDS011;58206;47.310;19.502;2023-04-22T18:02:51;0.45;;;0.13;;
70635;SDS011;58206;47.310;19.502;2023-04-22T18:05:38;0.50;;;0.20;;
70635;SDS011;58206;47.310;19.502;2023-04-22T18:08:26;0.30;;;0.10;;
70635;SDS011;58206;47.310;19.502;2023-04-22T18:11:11;0.30;;;0.00;;
70635;SDS011;58206;47.310;19.502;2023-04-22T18:13:55;0.43;;;0.10;;
70635;SDS011;58206;47.310;19.502;2023-04-22T18:16:40;0.30;;;0.10;;